Chicago Midway International Airport
KMDW : now visible

Airfield :











YOU CAN JOIN US ON...

 
LOGIN :

Register | Disclaimer

   EN    FR    IT 

 









Legend :    VFR   Marginal VFR   IFR   Intensive IFR   Very Intensive IFR
Visi :
Ceiling :
>= 8 km
>= 3000ft
5 to 8 km
1000 to 3000 ft
1500m to 5 km
500 to 1000 ft
800 to 1500m
200 to 500 ft
< 800m
< 200 ft
Symbols :   Thunderstorms  Fog  Heavy snow  Heavy precipitations  Wind > 20 kt






- Airport Elevation : 620 ft
- IATA code : MDW


KMDW - Chicago Midway International

CURRENT METAR :
  • 270253Z 35017KT 10SM OVC020 M03/M07 A3015 RMK AO2 SNB35E44 SLP222 DRSN P0000 60000 T10281072 53016 $

EXPIRED METARs :
  • 270153Z 35017G22KT 10SM FEW016 OVC025 M02/M06 A3012 RMK AO2 SNB12E38 SLP212 P0000 T10171056 $
  • 270127Z 35012KT 10SM -SN FEW016 BKN022 OVC037 M01/M06 A3011 RMK AO2 SNB12 P0000 T10111056 $
  • 270053Z 36011KT 10SM SCT016 OVC033 M01/M05 A3010 RMK AO2 SNE25 SLP205 P0000 T10111050 $
  • 270050Z 36014KT 10SM SCT016 OVC033 M01/M05 A3010 RMK AO2 SNE25 P0000 $
  • 270020Z 36014KT 10SM -SN SCT016 BKN028 OVC039 M01/M05 A3008 RMK AO2 DRSN P0000 T10111050 $

TAF KMDW
Valid from the 27 at 03:00 until the 28 at 06:00 UTC


270300Z 2703/2806 35012G18KT P6SM BKN020
FM271100 01010KT P6SM -SN BKN020
TEMPO 2712/2715 3SM -SHSN BKN015
FM271800 36012KT P6SM BKN020
KZAU FIR / North America



MET'MAP, your aeronautical weather chart ! - Copyright ORBIFLY December 2007 - Disclaimer

ORBIFLY MET'MAP TEAM :

Programming & Development : Alexandra Zaïnal
Concept & original design : Baudouin d'Aumeries
Assistance for programming : Marc-Olivier Méhu
Technical & hardware support : Manuel Goepfert

Contact : metmap@orbifly.com




SOURCES & CREDITS :

   NOAA       Earth
Advisory